sensor_id;sensor_type;location;lat;lon;timestamp;temperature;humidity
53412;DHT22;39307;52.870;13.660;2024-03-08T00:00:18;5.60;70.90
53412;DHT22;39307;52.870;13.660;2024-03-08T00:02:48;5.60;71.20
53412;DHT22;39307;52.870;13.660;2024-03-08T00:05:15;5.60;71.40
53412;DHT22;39307;52.870;13.660;2024-03-08T00:07:42;5.60;71.10
53412;DHT22;39307;52.870;13.660;2024-03-08T00:10:11;5.60;71.20
53412;DHT22;39307;52.870;13.660;2024-03-08T00:12:39;5.60;71.30
53412;DHT22;39307;52.870;13.660;2024-03-08T00:15:06;5.60;70.80
53412;DHT22;39307;52.870;13.660;2024-03-08T00:17:37;5.60;71.20
53412;DHT22;39307;52.870;13.660;2024-03-08T00:20:05;5.60;71.20
53412;DHT22;39307;52.870;13.660;2024-03-08T00:22:32;5.60;71.40
53412;DHT22;39307;52.870;13.660;2024-03-08T00:24:59;5.60;71.30
53412;DHT22;39307;52.870;13.660;2024-03-08T00:27:26;5.60;71.50
53412;DHT22;39307;52.870;13.660;2024-03-08T00:29:52;5.60;71.50
53412;DHT22;39307;52.870;13.660;2024-03-08T00:32:19;5.60;71.60
53412;DHT22;39307;52.870;13.660;2024-03-08T00:34:46;5.60;71.50
53412;DHT22;39307;52.870;13.660;2024-03-08T00:37:13;5.60;71.50
53412;DHT22;39307;52.870;13.660;2024-03-08T00:39:39;5.60;71.60
53412;DHT22;39307;52.870;13.660;2024-03-08T00:42:06;5.60;71.60
53412;DHT22;39307;52.870;13.660;2024-03-08T00:44:33;5.50;71.70
53412;DHT22;39307;52.870;13.660;2024-03-08T00:46:59;5.60;71.70
53412;DHT22;39307;52.870;13.660;2024-03-08T00:49:26;5.50;71.60
53412;DHT22;39307;52.870;13.660;2024-03-08T00:51:53;5.50;71.60
53412;DHT22;39307;52.870;13.660;2024-03-08T00:54:20;5.50;71.70
53412;DHT22;39307;52.870;13.660;2024-03-08T00:56:46;5.50;71.70
53412;DHT22;39307;52.870;13.660;2024-03-08T00:59:13;5.50;71.80
53412;DHT22;39307;52.870;13.660;2024-03-08T01:01:43;5.50;71.70
53412;DHT22;39307;52.870;13.660;2024-03-08T01:04:10;5.50;71.70
53412;DHT22;39307;52.870;13.660;2024-03-08T01:06:37;5.50;71.60
53412;DHT22;39307;52.870;13.660;2024-03-08T01:09:04;5.50;71.60
53412;DHT22;39307;52.870;13.660;2024-03-08T01:11:32;5.50;71.50
53412;DHT22;39307;52.870;13.660;2024-03-08T01:13:59;5.50;71.70
53412;DHT22;39307;52.870;13.660;2024-03-08T01:16:26;5.50;71.50
53412;DHT22;39307;52.870;13.660;2024-03-08T01:18:53;5.50;71.60
53412;DHT22;39307;52.870;13.660;2024-03-08T01:21:20;5.50;71.40
53412;DHT22;39307;52.870;13.660;2024-03-08T01:23:46;5.50;71.40
53412;DHT22;39307;52.870;13.660;2024-03-08T01:26:13;5.50;71.50
53412;DHT22;39307;52.870;13.660;2024-03-08T01:28:40;5.50;71.40
53412;DHT22;39307;52.870;13.660;2024-03-08T01:31:07;5.50;71.40
53412;DHT22;39307;52.870;13.660;2024-03-08T01:33:34;5.50;71.50
53412;DHT22;39307;52.870;13.660;2024-03-08T01:36:00;5.50;71.50
53412;DHT22;39307;52.870;13.660;2024-03-08T01:38:28;5.50;71.50
53412;DHT22;39307;52.870;13.660;2024-03-08T01:40:58;5.50;71.50
53412;DHT22;39307;52.870;13.660;2024-03-08T01:43:29;5.50;71.30
53412;DHT22;39307;52.870;13.660;2024-03-08T01:45:58;5.50;71.50
53412;DHT22;39307;52.870;13.660;2024-03-08T01:48:25;5.50;71.50
53412;DHT22;39307;52.870;13.660;2024-03-08T01:50:55;5.50;71.50
53412;DHT22;39307;52.870;13.660;2024-03-08T01:53:26;5.50;71.60
53412;DHT22;39307;52.870;13.660;2024-03-08T01:55:58;5.50;71.60
53412;DHT22;39307;52.870;13.660;2024-03-08T01:58:29;5.50;71.60
53412;DHT22;39307;52.870;13.660;2024-03-08T02:00:57;5.50;71.70
53412;DHT22;39307;52.870;13.660;2024-03-08T02:03:24;5.50;71.70
53412;DHT22;39307;52.870;13.660;2024-03-08T02:05:50;5.50;71.70
53412;DHT22;39307;52.870;13.660;2024-03-08T02:08:18;5.50;70.60
53412;DHT22;39307;52.870;13.660;2024-03-08T02:10:46;5.50;71.50
53412;DHT22;39307;52.870;13.660;2024-03-08T02:13:12;5.50;71.50
53412;DHT22;39307;52.870;13.660;2024-03-08T02:15:55;5.50;71.60
53412;DHT22;39307;52.870;13.660;2024-03-08T02:18:23;5.50;71.40
53412;DHT22;39307;52.870;13.660;2024-03-08T02:20:58;5.50;71.50
53412;DHT22;39307;52.870;13.660;2024-03-08T02:23:26;5.50;71.60
53412;DHT22;39307;52.870;13.660;2024-03-08T02:25:54;5.50;71.60
53412;DHT22;39307;52.870;13.660;2024-03-08T02:28:22;5.50;71.50
53412;DHT22;39307;52.870;13.660;2024-03-08T02:30:50;5.50;71.60
53412;DHT22;39307;52.870;13.660;2024-03-08T02:33:18;5.50;71.40
53412;DHT22;39307;52.870;13.660;2024-03-08T02:35:45;5.50;71.60
53412;DHT22;39307;52.870;13.660;2024-03-08T02:38:13;5.50;71.50
53412;DHT22;39307;52.870;13.660;2024-03-08T02:40:50;5.50;71.60
53412;DHT22;39307;52.870;13.660;2024-03-08T02:43:19;5.50;71.70
53412;DHT22;39307;52.870;13.660;2024-03-08T02:45:47;5.50;71.60
53412;DHT22;39307;52.870;13.660;2024-03-08T02:48:15;5.50;71.70
53412;DHT22;39307;52.870;13.660;2024-03-08T02:50:42;5.50;71.70
53412;DHT22;39307;52.870;13.660;2024-03-08T02:53:09;5.50;71.80
53412;DHT22;39307;52.870;13.660;2024-03-08T02:55:36;5.50;71.70
53412;DHT22;39307;52.870;13.660;2024-03-08T02:58:04;5.50;71.80
53412;DHT22;39307;52.870;13.660;2024-03-08T03:00:31;5.40;71.80
53412;DHT22;39307;52.870;13.660;2024-03-08T03:02:58;5.50;71.90
53412;DHT22;39307;52.870;13.660;2024-03-08T03:05:25;5.40;71.80
53412;DHT22;39307;52.870;13.660;2024-03-08T03:07:52;5.40;71.80
53412;DHT22;39307;52.870;13.660;2024-03-08T03:10:19;5.40;71.80
53412;DHT22;39307;52.870;13.660;2024-03-08T03:12:46;5.40;71.90
53412;DHT22;39307;52.870;13.660;2024-03-08T03:15:13;5.40;71.90
53412;DHT22;39307;52.870;13.660;2024-03-08T03:17:40;5.40;71.90
53412;DHT22;39307;52.870;13.660;2024-03-08T03:20:08;5.40;71.90
53412;DHT22;39307;52.870;13.660;2024-03-08T03:22:36;5.40;71.90
53412;DHT22;39307;52.870;13.660;2024-03-08T03:25:03;5.40;71.90
53412;DHT22;39307;52.870;13.660;2024-03-08T03:27:30;5.40;71.90
53412;DHT22;39307;52.870;13.660;2024-03-08T03:29:57;5.40;71.90
53412;DHT22;39307;52.870;13.660;2024-03-08T03:32:24;5.40;72.00
53412;DHT22;39307;52.870;13.660;2024-03-08T03:34:50;5.40;72.00
53412;DHT22;39307;52.870;13.660;2024-03-08T03:37:17;5.40;72.00
53412;DHT22;39307;52.870;13.660;2024-03-08T03:39:44;5.40;72.00
53412;DHT22;39307;52.870;13.660;2024-03-08T03:42:10;5.40;72.00
53412;DHT22;39307;52.870;13.660;2024-03-08T03:44:37;5.40;72.10
53412;DHT22;39307;52.870;13.660;2024-03-08T03:47:04;5.40;72.00
53412;DHT22;39307;52.870;13.660;2024-03-08T03:49:31;5.40;72.00
53412;DHT22;39307;52.870;13.660;2024-03-08T03:51:58;5.30;72.10
53412;DHT22;39307;52.870;13.660;2024-03-08T03:54:24;5.30;72.00
53412;DHT22;39307;52.870;13.660;2024-03-08T03:56:51;5.30;72.00
53412;DHT22;39307;52.870;13.660;2024-03-08T03:59:18;5.30;72.00
53412;DHT22;39307;52.870;13.660;2024-03-08T04:01:45;5.30;72.00
53412;DHT22;39307;52.870;13.660;2024-03-08T04:04:12;5.30;72.00
53412;DHT22;39307;52.870;13.660;2024-03-08T04:06:39;5.30;72.00
53412;DHT22;39307;52.870;13.660;2024-03-08T04:09:05;5.30;71.90
53412;DHT22;39307;52.870;13.660;2024-03-08T04:11:32;5.30;71.90
53412;DHT22;39307;52.870;13.660;2024-03-08T04:13:59;5.30;72.00
53412;DHT22;39307;52.870;13.660;2024-03-08T04:16:26;5.30;72.00
53412;DHT22;39307;52.870;13.660;2024-03-08T04:18:53;5.30;71.90
53412;DHT22;39307;52.870;13.660;2024-03-08T04:21:20;5.30;72.00
53412;DHT22;39307;52.870;13.660;2024-03-08T04:23:47;5.30;72.00
53412;DHT22;39307;52.870;13.660;2024-03-08T04:26:14;5.30;72.00
53412;DHT22;39307;52.870;13.660;2024-03-08T04:28:41;5.30;72.00
53412;DHT22;39307;52.870;13.660;2024-03-08T04:31:08;5.30;72.00
53412;DHT22;39307;52.870;13.660;2024-03-08T04:33:35;5.30;72.00
53412;DHT22;39307;52.870;13.660;2024-03-08T04:36:02;5.30;72.00
53412;DHT22;39307;52.870;13.660;2024-03-08T04:38:29;5.30;72.00
53412;DHT22;39307;52.870;13.660;2024-03-08T04:40:56;5.30;72.00
53412;DHT22;39307;52.870;13.660;2024-03-08T04:43:24;5.30;72.00
53412;DHT22;39307;52.870;13.660;2024-03-08T04:45:52;5.30;72.00
53412;DHT22;39307;52.870;13.660;2024-03-08T04:48:19;5.30;72.00
53412;DHT22;39307;52.870;13.660;2024-03-08T04:50:46;5.30;72.10
53412;DHT22;39307;52.870;13.660;2024-03-08T04:53:13;5.30;72.00
53412;DHT22;39307;52.870;13.660;2024-03-08T04:55:39;5.30;72.00
53412;DHT22;39307;52.870;13.660;2024-03-08T04:58:06;5.30;72.10
53412;DHT22;39307;52.870;13.660;2024-03-08T05:00:33;5.30;72.10
53412;DHT22;39307;52.870;13.660;2024-03-08T05:03:00;5.30;71.90
53412;DHT22;39307;52.870;13.660;2024-03-08T05:05:27;5.30;71.90
53412;DHT22;39307;52.870;13.660;2024-03-08T05:07:54;5.30;71.90
53412;DHT22;39307;52.870;13.660;2024-03-08T05:10:21;5.30;71.90
53412;DHT22;39307;52.870;13.660;2024-03-08T05:12:47;5.30;71.70
53412;DHT22;39307;52.870;13.660;2024-03-08T05:15:14;5.30;71.90
53412;DHT22;39307;52.870;13.660;2024-03-08T05:17:41;5.30;71.90
53412;DHT22;39307;52.870;13.660;2024-03-08T05:20:08;5.30;71.90
53412;DHT22;39307;52.870;13.660;2024-03-08T05:22:35;5.30;71.70
53412;DHT22;39307;52.870;13.660;2024-03-08T05:25:02;5.30;71.90
53412;DHT22;39307;52.870;13.660;2024-03-08T05:27:29;5.30;72.00
53412;DHT22;39307;52.870;13.660;2024-03-08T05:29:56;5.30;71.90
53412;DHT22;39307;52.870;13.660;2024-03-08T05:32:23;5.30;72.00
53412;DHT22;39307;52.870;13.660;2024-03-08T05:34:49;5.20;72.00
53412;DHT22;39307;52.870;13.660;2024-03-08T05:37:16;5.20;72.00
53412;DHT22;39307;52.870;13.660;2024-03-08T05:39:43;5.20;72.00
53412;DHT22;39307;52.870;13.660;2024-03-08T05:42:10;5.20;72.00
53412;DHT22;39307;52.870;13.660;2024-03-08T05:44:36;5.20;72.00
53412;DHT22;39307;52.870;13.660;2024-03-08T05:47:03;5.30;71.90
53412;DHT22;39307;52.870;13.660;2024-03-08T05:49:30;5.20;72.00
53412;DHT22;39307;52.870;13.660;2024-03-08T05:51:57;5.20;72.00
53412;DHT22;39307;52.870;13.660;2024-03-08T05:54:24;5.20;72.00
53412;DHT22;39307;52.870;13.660;2024-03-08T05:56:50;5.20;72.00
53412;DHT22;39307;52.870;13.660;2024-03-08T05:59:17;5.20;72.10
53412;DHT22;39307;52.870;13.660;2024-03-08T06:01:44;5.20;72.10
53412;DHT22;39307;52.870;13.660;2024-03-08T06:04:11;5.20;72.00
53412;DHT22;39307;52.870;13.660;2024-03-08T06:06:38;5.20;72.00
53412;DHT22;39307;52.870;13.660;2024-03-08T06:09:04;5.20;72.00
53412;DHT22;39307;52.870;13.660;2024-03-08T06:11:31;5.10;72.00
53412;DHT22;39307;52.870;13.660;2024-03-08T06:13:58;5.10;72.00
53412;DHT22;39307;52.870;13.660;2024-03-08T06:16:25;5.10;72.00
53412;DHT22;39307;52.870;13.660;2024-03-08T06:18:53;5.10;72.00
53412;DHT22;39307;52.870;13.660;2024-03-08T06:21:19;5.10;72.00
53412;DHT22;39307;52.870;13.660;2024-03-08T06:23:46;5.10;72.00
53412;DHT22;39307;52.870;13.660;2024-03-08T06:26:13;5.10;72.00
53412;DHT22;39307;52.870;13.660;2024-03-08T06:28:40;5.10;72.00
53412;DHT22;39307;52.870;13.660;2024-03-08T06:31:07;5.10;72.00
53412;DHT22;39307;52.870;13.660;2024-03-08T06:33:33;5.10;72.10
53412;DHT22;39307;52.870;13.660;2024-03-08T06:36:00;5.10;72.10
53412;DHT22;39307;52.870;13.660;2024-03-08T06:38:27;5.10;72.10
53412;DHT22;39307;52.870;13.660;2024-03-08T06:40:54;5.10;72.10
53412;DHT22;39307;52.870;13.660;2024-03-08T06:43:21;5.10;72.10
53412;DHT22;39307;52.870;13.660;2024-03-08T06:45:47;5.10;72.10
53412;DHT22;39307;52.870;13.660;2024-03-08T06:48:18;5.10;72.10
53412;DHT22;39307;52.870;13.660;2024-03-08T06:50:45;5.10;72.00
53412;DHT22;39307;52.870;13.660;2024-03-08T06:53:13;5.10;72.10
53412;DHT22;39307;52.870;13.660;2024-03-08T06:55:40;5.10;72.10
53412;DHT22;39307;52.870;13.660;2024-03-08T06:58:07;5.10;72.00
53412;DHT22;39307;52.870;13.660;2024-03-08T07:00:34;5.10;72.10
53412;DHT22;39307;52.870;13.660;2024-03-08T07:03:01;5.10;72.00
53412;DHT22;39307;52.870;13.660;2024-03-08T07:05:29;5.10;72.10
53412;DHT22;39307;52.870;13.660;2024-03-08T07:07:56;5.10;72.10
53412;DHT22;39307;52.870;13.660;2024-03-08T07:10:23;5.10;72.10
53412;DHT22;39307;52.870;13.660;2024-03-08T07:12:53;5.00;72.00
53412;DHT22;39307;52.870;13.660;2024-03-08T07:15:20;5.10;72.00
53412;DHT22;39307;52.870;13.660;2024-03-08T07:17:47;5.10;72.10
53412;DHT22;39307;52.870;13.660;2024-03-08T07:20:14;5.00;72.10
53412;DHT22;39307;52.870;13.660;2024-03-08T07:22:41;5.00;72.10
53412;DHT22;39307;52.870;13.660;2024-03-08T07:25:08;5.00;72.10
53412;DHT22;39307;52.870;13.660;2024-03-08T07:27:35;5.00;72.00
53412;DHT22;39307;52.870;13.660;2024-03-08T07:30:03;5.00;72.00
53412;DHT22;39307;52.870;13.660;2024-03-08T07:32:30;5.00;72.00
53412;DHT22;39307;52.870;13.660;2024-03-08T07:34:57;5.00;72.10
53412;DHT22;39307;52.870;13.660;2024-03-08T07:37:24;5.00;72.10
53412;DHT22;39307;52.870;13.660;2024-03-08T07:39:51;5.00;72.00
53412;DHT22;39307;52.870;13.660;2024-03-08T07:42:17;5.00;72.00
53412;DHT22;39307;52.870;13.660;2024-03-08T07:44:44;5.00;72.00
53412;DHT22;39307;52.870;13.660;2024-03-08T07:47:11;5.00;72.00
53412;DHT22;39307;52.870;13.660;2024-03-08T07:49:38;5.00;72.00
53412;DHT22;39307;52.870;13.660;2024-03-08T07:52:05;5.00;72.00
53412;DHT22;39307;52.870;13.660;2024-03-08T07:54:32;5.00;72.10
53412;DHT22;39307;52.870;13.660;2024-03-08T07:56:59;5.00;72.00
53412;DHT22;39307;52.870;13.660;2024-03-08T07:59:25;5.00;72.00
53412;DHT22;39307;52.870;13.660;2024-03-08T08:01:52;5.00;72.00
53412;DHT22;39307;52.870;13.660;2024-03-08T08:04:18;5.00;72.00
53412;DHT22;39307;52.870;13.660;2024-03-08T08:06:45;5.00;72.00
53412;DHT22;39307;52.870;13.660;2024-03-08T08:09:12;5.00;72.00
53412;DHT22;39307;52.870;13.660;2024-03-08T08:11:39;5.00;72.00
53412;DHT22;39307;52.870;13.660;2024-03-08T08:14:07;5.00;71.90
53412;DHT22;39307;52.870;13.660;2024-03-08T08:16:34;5.00;72.00
53412;DHT22;39307;52.870;13.660;2024-03-08T08:19:01;5.00;72.00
53412;DHT22;39307;52.870;13.660;2024-03-08T08:21:28;5.00;72.00
53412;DHT22;39307;52.870;13.660;2024-03-08T08:23:55;5.00;72.00
53412;DHT22;39307;52.870;13.660;2024-03-08T08:26:22;5.00;71.90
53412;DHT22;39307;52.870;13.660;2024-03-08T08:28:49;5.00;71.80
53412;DHT22;39307;52.870;13.660;2024-03-08T08:31:15;5.00;71.90
53412;DHT22;39307;52.870;13.660;2024-03-08T08:33:42;5.00;71.90
53412;DHT22;39307;52.870;13.660;2024-03-08T08:36:09;5.00;71.90
53412;DHT22;39307;52.870;13.660;2024-03-08T08:38:36;5.00;71.90
53412;DHT22;39307;52.870;13.660;2024-03-08T08:41:02;5.00;71.90
53412;DHT22;39307;52.870;13.660;2024-03-08T08:43:30;5.00;71.90
53412;DHT22;39307;52.870;13.660;2024-03-08T08:45:57;5.00;71.90
53412;DHT22;39307;52.870;13.660;2024-03-08T08:48:23;5.00;71.90
53412;DHT22;39307;52.870;13.660;2024-03-08T08:50:50;5.00;71.90
53412;DHT22;39307;52.870;13.660;2024-03-08T08:53:17;5.00;71.90
53412;DHT22;39307;52.870;13.660;2024-03-08T08:55:44;5.00;71.90
53412;DHT22;39307;52.870;13.660;2024-03-08T08:58:11;5.00;71.90
53412;DHT22;39307;52.870;13.660;2024-03-08T09:00:38;5.00;71.90
53412;DHT22;39307;52.870;13.660;2024-03-08T09:03:05;5.00;72.00
53412;DHT22;39307;52.870;13.660;2024-03-08T09:05:35;7.00;68.00
53412;DHT22;39307;52.870;13.660;2024-03-08T09:08:01;9.20;61.50
53412;DHT22;39307;52.870;13.660;2024-03-08T09:10:28;8.90;61.50
53412;DHT22;39307;52.870;13.660;2024-03-08T09:12:55;8.00;63.70
53412;DHT22;39307;52.870;13.660;2024-03-08T09:15:22;7.30;65.70
53412;DHT22;39307;52.870;13.660;2024-03-08T09:17:49;6.80;67.20
53412;DHT22;39307;52.870;13.660;2024-03-08T09:20:16;6.50;68.30
53412;DHT22;39307;52.870;13.660;2024-03-08T09:22:46;6.30;69.20
53412;DHT22;39307;52.870;13.660;2024-03-08T09:25:12;6.10;69.70
53412;DHT22;39307;52.870;13.660;2024-03-08T09:27:39;6.00;70.10
53412;DHT22;39307;52.870;13.660;2024-03-08T09:30:06;5.90;70.40
53412;DHT22;39307;52.870;13.660;2024-03-08T09:32:33;5.80;70.60
53412;DHT22;39307;52.870;13.660;2024-03-08T09:35:00;5.70;70.70
53412;DHT22;39307;52.870;13.660;2024-03-08T09:37:28;5.70;70.80
53412;DHT22;39307;52.870;13.660;2024-03-08T09:39:54;5.70;70.80
53412;DHT22;39307;52.870;13.660;2024-03-08T09:42:21;5.60;70.50
53412;DHT22;39307;52.870;13.660;2024-03-08T09:44:48;5.60;70.70
53412;DHT22;39307;52.870;13.660;2024-03-08T09:47:15;5.60;70.80
53412;DHT22;39307;52.870;13.660;2024-03-08T09:49:42;5.60;70.90
53412;DHT22;39307;52.870;13.660;2024-03-08T09:52:08;5.50;71.00
53412;DHT22;39307;52.870;13.660;2024-03-08T09:54:41;5.50;70.90
53412;DHT22;39307;52.870;13.660;2024-03-08T09:57:15;5.50;71.00
53412;DHT22;39307;52.870;13.660;2024-03-08T09:59:42;5.50;71.00
53412;DHT22;39307;52.870;13.660;2024-03-08T10:02:14;5.50;71.00
53412;DHT22;39307;52.870;13.660;2024-03-08T10:04:41;5.50;71.00
53412;DHT22;39307;52.870;13.660;2024-03-08T10:07:08;5.50;70.90
53412;DHT22;39307;52.870;13.660;2024-03-08T10:09:34;5.50;70.70
53412;DHT22;39307;52.870;13.660;2024-03-08T10:12:04;5.50;70.60
53412;DHT22;39307;52.870;13.660;2024-03-08T10:14:32;5.50;70.40
53412;DHT22;39307;52.870;13.660;2024-03-08T10:16:58;5.50;70.60
53412;DHT22;39307;52.870;13.660;2024-03-08T10:19:25;5.50;70.70
53412;DHT22;39307;52.870;13.660;2024-03-08T10:21:53;5.50;70.60
53412;DHT22;39307;52.870;13.660;2024-03-08T10:24:20;5.40;70.60
53412;DHT22;39307;52.870;13.660;2024-03-08T10:26:47;5.40;70.50
53412;DHT22;39307;52.870;13.660;2024-03-08T10:29:13;5.40;70.20
53412;DHT22;39307;52.870;13.660;2024-03-08T10:31:44;5.50;70.50
53412;DHT22;39307;52.870;13.660;2024-03-08T10:34:10;5.50;70.40
53412;DHT22;39307;52.870;13.660;2024-03-08T10:36:41;5.50;70.30
53412;DHT22;39307;52.870;13.660;2024-03-08T10:39:21;5.50;70.00
53412;DHT22;39307;52.870;13.660;2024-03-08T10:41:57;5.50;69.80
53412;DHT22;39307;52.870;13.660;2024-03-08T10:44:37;5.50;70.20
53412;DHT22;39307;52.870;13.660;2024-03-08T10:47:19;5.50;70.10
53412;DHT22;39307;52.870;13.660;2024-03-08T10:49:59;5.50;70.20
53412;DHT22;39307;52.870;13.660;2024-03-08T10:52:38;5.50;69.90
53412;DHT22;39307;52.870;13.660;2024-03-08T10:55:05;5.50;69.80
53412;DHT22;39307;52.870;13.660;2024-03-08T10:57:36;5.50;69.90
53412;DHT22;39307;52.870;13.660;2024-03-08T11:00:03;5.50;69.90
53412;DHT22;39307;52.870;13.660;2024-03-08T11:02:31;5.50;70.00
53412;DHT22;39307;52.870;13.660;2024-03-08T11:04:57;5.50;70.00
53412;DHT22;39307;52.870;13.660;2024-03-08T11:07:25;5.50;69.80
53412;DHT22;39307;52.870;13.660;2024-03-08T11:09:52;5.50;70.00
53412;DHT22;39307;52.870;13.660;2024-03-08T11:12:25;5.50;70.00
53412;DHT22;39307;52.870;13.660;2024-03-08T11:14:54;5.50;69.90
53412;DHT22;39307;52.870;13.660;2024-03-08T11:19:59;5.60;69.80
53412;DHT22;39307;52.870;13.660;2024-03-08T11:22:31;5.60;69.80
53412;DHT22;39307;52.870;13.660;2024-03-08T11:25:03;5.60;69.80
53412;DHT22;39307;52.870;13.660;2024-03-08T11:27:36;5.60;69.90
53412;DHT22;39307;52.870;13.660;2024-03-08T11:30:06;5.60;69.90
53412;DHT22;39307;52.870;13.660;2024-03-08T11:32:34;5.60;69.90
53412;DHT22;39307;52.870;13.660;2024-03-08T11:35:02;5.60;69.60
53412;DHT22;39307;52.870;13.660;2024-03-08T11:37:34;5.60;69.70
53412;DHT22;39307;52.870;13.660;2024-03-08T11:40:01;5.60;69.50
53412;DHT22;39307;52.870;13.660;2024-03-08T11:42:28;5.60;69.90
53412;DHT22;39307;52.870;13.660;2024-03-08T11:44:55;5.60;69.50
53412;DHT22;39307;52.870;13.660;2024-03-08T11:47:22;5.60;69.20
53412;DHT22;39307;52.870;13.660;2024-03-08T11:49:49;5.60;69.50
53412;DHT22;39307;52.870;13.660;2024-03-08T11:52:18;5.70;68.80
53412;DHT22;39307;52.870;13.660;2024-03-08T11:54:54;5.70;68.90
53412;DHT22;39307;52.870;13.660;2024-03-08T11:57:25;5.70;68.60
53412;DHT22;39307;52.870;13.660;2024-03-08T11:59:55;5.70;69.10
53412;DHT22;39307;52.870;13.660;2024-03-08T12:02:23;5.70;68.90
53412;DHT22;39307;52.870;13.660;2024-03-08T12:04:59;5.70;68.80
53412;DHT22;39307;52.870;13.660;2024-03-08T12:07:27;5.70;68.90
53412;DHT22;39307;52.870;13.660;2024-03-08T12:10:20;5.80;68.70
53412;DHT22;39307;52.870;13.660;2024-03-08T12:12:49;5.80;69.20
53412;DHT22;39307;52.870;13.660;2024-03-08T12:15:21;5.80;69.50
53412;DHT22;39307;52.870;13.660;2024-03-08T12:17:51;5.80;69.50
53412;DHT22;39307;52.870;13.660;2024-03-08T12:20:21;5.80;69.50
53412;DHT22;39307;52.870;13.660;2024-03-08T12:22:49;5.80;69.40
53412;DHT22;39307;52.870;13.660;2024-03-08T12:25:17;5.90;69.30
53412;DHT22;39307;52.870;13.660;2024-03-08T12:27:44;5.90;69.50
53412;DHT22;39307;52.870;13.660;2024-03-08T12:30:22;5.90;69.40
53412;DHT22;39307;52.870;13.660;2024-03-08T12:33:00;5.90;69.40
53412;DHT22;39307;52.870;13.660;2024-03-08T12:35:28;5.90;69.40
53412;DHT22;39307;52.870;13.660;2024-03-08T12:37:57;5.90;69.20
53412;DHT22;39307;52.870;13.660;2024-03-08T12:40:34;5.90;69.20
53412;DHT22;39307;52.870;13.660;2024-03-08T12:43:01;6.00;69.40
53412;DHT22;39307;52.870;13.660;2024-03-08T12:45:28;6.00;69.40
53412;DHT22;39307;52.870;13.660;2024-03-08T12:47:55;6.00;69.50
53412;DHT22;39307;52.870;13.660;2024-03-08T12:50:23;6.00;69.50
53412;DHT22;39307;52.870;13.660;2024-03-08T12:52:50;6.00;69.60
53412;DHT22;39307;52.870;13.660;2024-03-08T12:55:17;6.00;69.20
53412;DHT22;39307;52.870;13.660;2024-03-08T12:57:44;6.00;68.90
53412;DHT22;39307;52.870;13.660;2024-03-08T13:00:11;6.00;69.30
53412;DHT22;39307;52.870;13.660;2024-03-08T13:02:42;6.00;69.30
53412;DHT22;39307;52.870;13.660;2024-03-08T13:05:09;6.00;69.40
53412;DHT22;39307;52.870;13.660;2024-03-08T13:07:36;6.10;69.30
53412;DHT22;39307;52.870;13.660;2024-03-08T13:10:03;6.10;68.90
53412;DHT22;39307;52.870;13.660;2024-03-08T13:12:31;6.10;69.10
53412;DHT22;39307;52.870;13.660;2024-03-08T13:14:58;6.10;69.20
53412;DHT22;39307;52.870;13.660;2024-03-08T13:17:25;6.10;69.10
53412;DHT22;39307;52.870;13.660;2024-03-08T13:19:51;6.10;69.20
53412;DHT22;39307;52.870;13.660;2024-03-08T13:22:18;6.10;69.20
53412;DHT22;39307;52.870;13.660;2024-03-08T13:24:45;6.10;69.20
53412;DHT22;39307;52.870;13.660;2024-03-08T13:27:12;6.20;69.20
53412;DHT22;39307;52.870;13.660;2024-03-08T13:29:39;6.20;69.30
53412;DHT22;39307;52.870;13.660;2024-03-08T13:32:06;6.20;69.30
53412;DHT22;39307;52.870;13.660;2024-03-08T13:34:33;6.20;69.30
53412;DHT22;39307;52.870;13.660;2024-03-08T13:36:59;6.20;69.30
53412;DHT22;39307;52.870;13.660;2024-03-08T13:39:26;6.30;69.70
53412;DHT22;39307;52.870;13.660;2024-03-08T13:41:53;6.30;69.70
53412;DHT22;39307;52.870;13.660;2024-03-08T13:44:20;6.30;69.40
53412;DHT22;39307;52.870;13.660;2024-03-08T13:46:47;6.30;69.50
53412;DHT22;39307;52.870;13.660;2024-03-08T13:49:14;6.40;69.40
53412;DHT22;39307;52.870;13.660;2024-03-08T13:51:41;6.40;69.60
53412;DHT22;39307;52.870;13.660;2024-03-08T13:54:08;6.40;69.60
53412;DHT22;39307;52.870;13.660;2024-03-08T13:56:34;6.40;69.50
53412;DHT22;39307;52.870;13.660;2024-03-08T13:59:01;6.40;69.70
53412;DHT22;39307;52.870;13.660;2024-03-08T14:01:28;6.40;69.70
53412;DHT22;39307;52.870;13.660;2024-03-08T14:03:55;6.50;69.40
53412;DHT22;39307;52.870;13.660;2024-03-08T14:06:21;6.50;69.40
53412;DHT22;39307;52.870;13.660;2024-03-08T14:08:48;6.50;69.60
53412;DHT22;39307;52.870;13.660;2024-03-08T14:11:15;6.50;69.60
53412;DHT22;39307;52.870;13.660;2024-03-08T14:13:44;6.50;69.70
53412;DHT22;39307;52.870;13.660;2024-03-08T14:16:14;6.50;69.80
53412;DHT22;39307;52.870;13.660;2024-03-08T14:18:41;6.60;69.80
53412;DHT22;39307;52.870;13.660;2024-03-08T14:21:08;6.60;69.80
53412;DHT22;39307;52.870;13.660;2024-03-08T14:23:35;6.60;69.80
53412;DHT22;39307;52.870;13.660;2024-03-08T14:26:03;6.70;70.00
53412;DHT22;39307;52.870;13.660;2024-03-08T14:28:30;6.70;69.90
53412;DHT22;39307;52.870;13.660;2024-03-08T14:30:56;6.70;69.90
53412;DHT22;39307;52.870;13.660;2024-03-08T14:33:23;6.70;69.80
53412;DHT22;39307;52.870;13.660;2024-03-08T14:35:50;6.80;69.80
53412;DHT22;39307;52.870;13.660;2024-03-08T14:38:17;6.80;69.90
53412;DHT22;39307;52.870;13.660;2024-03-08T14:40:44;6.80;69.90
53412;DHT22;39307;52.870;13.660;2024-03-08T14:43:11;6.80;69.70
53412;DHT22;39307;52.870;13.660;2024-03-08T14:45:38;6.80;69.70
53412;DHT22;39307;52.870;13.660;2024-03-08T14:48:05;6.80;69.40
53412;DHT22;39307;52.870;13.660;2024-03-08T14:50:32;6.90;69.30
53412;DHT22;39307;52.870;13.660;2024-03-08T14:52:59;6.90;69.30
53412;DHT22;39307;52.870;13.660;2024-03-08T14:55:26;6.90;69.20
53412;DHT22;39307;52.870;13.660;2024-03-08T14:57:53;6.90;69.30
53412;DHT22;39307;52.870;13.660;2024-03-08T15:00:21;6.90;69.20
53412;DHT22;39307;52.870;13.660;2024-03-08T15:02:48;7.00;69.00
53412;DHT22;39307;52.870;13.660;2024-03-08T15:05:14;7.00;69.00
53412;DHT22;39307;52.870;13.660;2024-03-08T15:07:41;7.00;68.80
53412;DHT22;39307;52.870;13.660;2024-03-08T15:10:09;7.00;69.10
53412;DHT22;39307;52.870;13.660;2024-03-08T15:12:36;7.00;69.00
53412;DHT22;39307;52.870;13.660;2024-03-08T15:15:03;7.00;69.00
53412;DHT22;39307;52.870;13.660;2024-03-08T15:17:30;7.00;69.00
53412;DHT22;39307;52.870;13.660;2024-03-08T15:19:57;7.00;68.90
53412;DHT22;39307;52.870;13.660;2024-03-08T15:22:23;7.00;68.70
53412;DHT22;39307;52.870;13.660;2024-03-08T15:24:50;7.10;68.90
53412;DHT22;39307;52.870;13.660;2024-03-08T15:27:17;7.20;68.40
53412;DHT22;39307;52.870;13.660;2024-03-08T15:29:44;7.20;68.80
53412;DHT22;39307;52.870;13.660;2024-03-08T15:32:11;7.20;68.90
53412;DHT22;39307;52.870;13.660;2024-03-08T15:34:37;7.20;68.80